Time;durP1;ratioP1;P1;durP2;ratioP2;P2;SDS_P1;SDS_P2;PMS_P1;PMS_P2;Temp;Humidity;BMP_temperature;BMP_pressure;BME280_temperature;BME280_humidity;BME280_pressure;Samples;Min_cycle;Max_cycle;Signal;HPM_P1;HPM_P2
2021/11/09 00:01:04;;;;;;;33.95;10.82;;;;;;;9.93;70.77;102007.56;5054016;28;20059;-60
2021/11/09 00:03:38;;;;;;;30.45;10.43;;;;;;;10.16;70.34;102012.53;5061644;28;20049;-62
2021/11/09 00:06:16;;;;;;;32.20;10.02;;;;;;;10.35;69.54;101996.19;5072842;28;20578;-62
2021/11/09 00:09:18;;;;;;;35.92;10.43;;;;;;;10.38;68.63;101999.22;5055764;28;20049;-61
2021/11/09 00:11:38;;;;;;;30.17;10.60;;;;;;;10.53;69.01;101988.13;5052149;28;20060;-60
2021/11/09 00:14:05;;;;;;;29.30;9.80;;;;;;;10.15;69.61;101988.81;5054559;28;20079;-61
2021/11/09 00:16:33;;;;;;;33.13;11.95;;;;;;;10.02;70.44;101992.16;5054708;28;20415;-61
2021/11/09 00:19:01;;;;;;;29.75;10.18;;;;;;;10.13;70.00;101991.84;5048521;28;20109;-60
2021/11/09 00:21:30;;;;;;;20.73;10.02;;;;;;;10.24;69.85;101981.63;5055013;28;20060;-60
2021/11/09 00:24:00;;;;;;;26.17;9.82;;;;;;;10.12;70.13;101978.38;5054803;28;20045;-60
2021/11/09 00:26:28;;;;;;;24.00;9.65;;;;;;;10.00;70.58;101972.31;5054670;28;20412;-62
2021/11/09 00:28:57;;;;;;;25.15;9.82;;;;;;;10.14;70.15;101973.41;5052898;28;20074;-61
2021/11/09 00:31:24;;;;;;;32.28;10.90;;;;;;;10.19;69.95;101976.16;5054279;28;20049;-59
2021/11/09 00:33:52;;;;;;;29.80;9.82;;;;;;;10.05;70.33;101975.06;5054619;28;20064;-61
2021/11/09 00:36:20;;;;;;;28.02;10.38;;;;;;;10.03;70.51;101983.59;5055290;28;20064;-60
2021/11/09 00:38:48;;;;;;;30.80;10.55;;;;;;;9.94;70.75;101985.28;5042594;28;20575;-61
2021/11/09 00:41:16;;;;;;;25.58;10.20;;;;;;;10.02;70.16;101979.19;5078825;28;20057;-61
2021/11/09 00:43:43;;;;;;;26.77;9.93;;;;;;;10.25;70.14;101986.06;5077086;28;20044;-61
2021/11/09 00:46:10;;;;;;;30.58;11.10;;;;;;;10.16;69.96;101979.47;5078344;28;20100;-60
2021/11/09 00:48:38;;;;;;;27.80;9.68;;;;;;;10.13;69.89;101963.50;5042445;28;20384;-61
2021/11/09 00:51:06;;;;;;;27.00;10.30;;;;;;;10.01;70.52;101976.72;5076890;28;20052;-62
2021/11/09 00:53:33;;;;;;;26.40;9.82;;;;;;;10.07;70.33;101978.38;5065962;28;20068;-60
2021/11/09 00:56:00;;;;;;;30.92;10.52;;;;;;;9.92;70.69;101983.91;5058348;28;20048;-61
2021/11/09 00:58:27;;;;;;;35.55;10.80;;;;;;;9.85;70.97;101986.94;5057636;28;20053;-62
2021/11/09 01:00:55;;;;;;;37.83;11.77;;;;;;;9.83;71.48;101977.31;5056897;28;20044;-61
2021/11/09 01:03:23;;;;;;;29.13;11.45;;;;;;;9.93;71.21;101977.28;5056677;28;20063;-61
2021/11/09 01:05:50;;;;;;;31.77;10.93;;;;;;;9.88;70.75;101983.66;5056717;28;20053;-61
2021/11/09 01:08:19;;;;;;;32.28;12.45;;;;;;;9.94;71.05;101987.19;5056330;28;20053;-61
2021/11/09 01:10:50;;;;;;;33.65;11.77;;;;;;;9.92;70.95;101984.72;5055957;28;20203;-61
2021/11/09 01:13:19;;;;;;;33.97;12.13;;;;;;;9.90;70.74;101989.66;5073118;28;20144;-62
2021/11/09 01:15:49;;;;;;;31.08;11.18;;;;;;;10.05;70.67;101991.56;5057917;28;20060;-61
2021/11/09 01:18:33;;;;;;;30.48;11.45;;;;;;;10.01;70.46;101996.81;5057553;28;20048;-60
2021/11/09 01:21:06;;;;;;;34.00;13.27;;;;;;;10.14;70.09;101984.44;5053184;28;20049;-61
2021/11/09 01:23:38;;;;;;;25.98;11.00;;;;;;;10.14;70.26;101992.69;5038070;28;20057;-63
2021/11/09 01:26:07;;;;;;;33.15;11.30;;;;;;;9.98;70.26;101988.28;5037463;28;20084;-61
2021/11/09 01:28:38;;;;;;;34.30;12.82;;;;;;;9.87;71.03;102001.25;5037510;28;20045;-62
2021/11/09 01:31:07;;;;;;;34.35;11.82;;;;;;;9.86;70.85;101999.59;5037496;28;20049;-62
2021/11/09 01:33:38;;;;;;;27.50;11.73;;;;;;;9.97;70.36;102001.22;5036690;28;20045;-62
2021/11/09 01:36:11;;;;;;;33.20;12.07;;;;;;;9.71;71.46;102007.84;5052563;28;20481;-61
2021/11/09 01:38:38;;;;;;;27.33;10.98;;;;;;;9.67;71.53;101997.69;5041122;28;20428;-60
2021/11/09 01:41:08;;;;;;;28.23;11.30;;;;;;;9.61;71.77;102002.38;5077701;28;20048;-59
2021/11/09 01:43:37;;;;;;;27.73;10.70;;;;;;;9.52;72.13;102003.22;5076155;28;20048;-60
2021/11/09 01:46:06;;;;;;;21.23;9.80;;;;;;;9.74;71.45;102001.00;5077473;28;20052;-62
2021/11/09 01:48:40;;;;;;;27.40;11.02;;;;;;;9.72;71.37;102000.44;5076803;28;20048;-63
2021/11/09 01:51:15;;;;;;;32.47;9.15;;;;;;;9.70;71.39;102003.47;5076707;28;20055;-62
2021/11/09 01:53:46;;;;;;;27.35;10.18;;;;;;;9.70;71.26;102003.47;5077292;28;20518;-62
2021/11/09 01:56:15;;;;;;;;;;;;;;;9.67;71.06;102003.19;5077866;28;20496;-61
2021/11/09 01:58:44;;;;;;;25.13;9.37;;;;;;;9.73;71.10;102005.66;5076869;28;19920;-63
2021/11/09 02:01:17;;;;;;;28.45;9.80;;;;;;;9.62;71.24;102003.19;5077175;28;20051;-61
2021/11/09 02:03:51;;;;;;;36.45;10.32;;;;;;;9.68;71.27;101999.34;5077285;28;20052;-61
2021/11/09 02:06:20;;;;;;;32.30;9.90;;;;;;;9.74;70.60;101999.06;5077161;28;20496;-61
2021/11/09 02:09:04;;;;;;;27.08;8.82;;;;;;;9.43;71.19;102004.84;5076816;28;20053;-61
2021/11/09 02:11:32;;;;;;;33.22;9.48;;;;;;;9.42;71.86;101998.53;5076988;28;20056;-62
2021/11/09 02:14:00;;;;;;;25.30;9.20;;;;;;;9.49;71.66;102001.81;5076779;28;20051;-61
2021/11/09 02:16:29;;;;;;;24.08;9.20;;;;;;;9.22;72.35;102001.28;5076807;28;20055;-62
2021/11/09 02:18:56;;;;;;;24.95;9.88;;;;;;;9.33;72.31;101993.84;5074222;28;20427;-61
2021/11/09 02:21:24;;;;;;;33.63;9.75;;;;;;;9.39;71.97;101993.56;5050070;28;20048;-61
2021/11/09 02:23:51;;;;;;;24.50;9.73;;;;;;;9.47;71.79;102000.44;5056741;28;20049;-62
2021/11/09 02:26:22;;;;;;;25.00;9.15;;;;;;;9.37;72.17;102001.28;5056683;28;20369;-59
2021/11/09 02:28:53;;;;;;;28.55;10.32;;;;;;;9.53;71.85;102007.59;5056144;28;20052;-60
2021/11/09 02:31:21;;;;;;;29.85;9.80;;;;;;;9.45;71.69;102008.16;5056302;28;20059;-61
2021/11/09 02:33:48;;;;;;;27.83;11.18;;;;;;;9.41;71.91;102009.78;5055025;28;20055;-61
2021/11/09 02:36:18;;;;;;;25.60;10.10;;;;;;;9.13;72.18;102013.06;5071744;28;20052;-62
2021/11/09 02:38:46;;;;;;;29.83;9.63;;;;;;;9.46;72.07;102015.28;5058938;28;20040;-61
2021/11/09 02:41:14;;;;;;;28.23;9.90;;;;;;;9.69;71.21;102020.25;5061739;28;20302;-62
2021/11/09 02:43:41;;;;;;;29.52;10.07;;;;;;;9.61;71.14;102016.13;5056330;28;20057;-61
2021/11/09 02:49:20;;;;;;;29.83;9.68;;;;;;;9.63;71.03;102013.09;5070065;28;20057;-62
2021/11/09 02:52:02;;;;;;;29.90;9.00;;;;;;;9.49;71.71;102017.50;5055099;28;20083;-60
2021/11/09 02:54:36;;;;;;;25.48;9.77;;;;;;;9.52;71.49;102014.22;5054978;28;20052;-60
2021/11/09 02:57:17;;;;;;;29.48;9.77;;;;;;;9.59;71.07;102014.75;5054818;28;20056;-61
2021/11/09 02:59:52;;;;;;;26.90;8.68;;;;;;;9.43;71.45;102013.09;5055589;28;20127;-59
2021/11/09 03:09:59;;;;;;;23.75;8.60;;;;;;;9.13;72.63;102006.44;5053472;28;20061;-60
2021/11/09 03:12:36;;;;;;;24.15;8.57;;;;;;;9.13;72.25;102017.44;5055515;28;20049;-58
2021/11/09 03:15:06;;;;;;;27.50;8.48;;;;;;;9.21;71.91;102015.25;5055416;28;20512;-60
2021/11/09 03:17:48;;;;;;;23.73;8.13;;;;;;;9.00;72.59;102009.75;5055435;28;20049;-59
2021/11/09 03:20:36;;;;;;;24.95;8.20;;;;;;;8.93;72.65;102009.16;5055116;28;20056;-61
2021/11/09 03:45:08;;;;;;;30.17;6.60;;;;;;;9.21;71.43;102012.50;5074029;28;20049;-60
2021/11/09 03:47:43;;;;;;;27.52;6.90;;;;;;;9.12;71.86;102014.97;5075106;28;20048;-60
2021/11/09 03:50:10;;;;;;;24.88;6.45;;;;;;;9.01;71.89;102013.31;5073652;28;20044;-60
2021/11/09 03:52:42;;;;;;;21.20;6.50;;;;;;;8.97;71.92;102003.97;5070053;28;20049;-59
2021/11/09 03:55:14;;;;;;;26.30;7.82;;;;;;;8.94;72.21;102007.25;5053932;28;20045;-59
2021/11/09 03:58:01;;;;;;;26.45;6.55;;;;;;;8.93;72.12;102006.44;5055555;28;20052;-60
2021/11/09 04:00:33;;;;;;;26.15;7.18;;;;;;;9.03;72.46;102009.19;5054476;28;20048;-61
2021/11/09 04:03:06;;;;;;;21.48;6.53;;;;;;;9.06;71.88;102008.66;5053610;28;20049;-60
2021/11/09 04:05:37;;;;;;;29.15;6.97;;;;;;;9.05;71.49;102008.91;5055047;28;20056;-60
2021/11/09 04:08:13;;;;;;;19.83;7.03;;;;;;;9.06;72.44;102016.91;5054980;28;20059;-62
2021/11/09 05:01:36;;;;;;;19.90;6.45;;;;;;;8.89;71.87;102029.22;5078715;28;20048;-62
2021/11/09 05:09:40;;;;;;;22.83;6.13;;;;;;;8.78;72.04;102041.28;5077753;28;20048;-61
2021/11/09 05:12:08;;;;;;;23.65;7.00;;;;;;;8.98;72.05;102038.56;5077780;28;20056;-59
2021/11/09 05:14:36;;;;;;;24.02;7.22;;;;;;;8.86;71.47;102030.59;5077812;28;20059;-60
2021/11/09 05:17:03;;;;;;;27.25;7.68;;;;;;;8.61;72.93;102035.16;5059956;28;20055;-59
2021/11/09 05:19:31;;;;;;;24.45;8.13;;;;;;;8.67;72.47;102043.16;5070639;28;20653;-59
2021/11/09 05:21:59;;;;;;;27.75;8.57;;;;;;;8.74;72.59;102049.22;5062125;28;20036;-60
2021/11/09 05:24:26;;;;;;;19.50;7.05;;;;;;;8.84;72.06;102048.41;5043617;28;20045;-60
2021/11/09 05:26:53;;;;;;;21.38;7.95;;;;;;;8.95;72.13;102044.63;5038434;28;20053;-59
2021/11/09 05:29:21;;;;;;;24.83;8.63;;;;;;;8.81;72.35;102052.56;5057239;28;20060;-58
2021/11/09 05:31:50;;;;;;;21.67;7.70;;;;;;;8.86;72.11;102047.06;5063531;28;20420;-59
2021/11/09 05:34:18;;;;;;;22.80;7.97;;;;;;;9.03;72.20;102050.41;5091977;28;20049;-60
2021/11/09 05:36:45;;;;;;;25.85;9.95;;;;;;;8.92;72.40;102051.50;5075319;28;20056;-60
2021/11/09 05:39:16;;;;;;;36.08;12.40;;;;;;;8.29;74.38;102060.00;5076820;28;20040;-56
2021/11/09 05:41:45;;;;;;;31.58;13.50;;;;;;;8.46;74.28;102068.88;5062792;28;20068;-57
2021/11/09 05:44:13;;;;;;;29.13;14.43;;;;;;;8.27;75.36;102067.66;5055153;28;20052;-58
2021/11/09 05:46:40;;;;;;;36.55;17.27;;;;;;;8.16;75.64;102067.84;5067661;28;20055;-58
2021/11/09 05:49:08;;;;;;;35.60;16.77;;;;;;;8.11;75.88;102063.13;5076241;28;20120;-58
2021/11/09 05:51:36;;;;;;;43.55;17.45;;;;;;;8.19;75.76;102064.56;5070023;28;20052;-58
2021/11/09 05:54:04;;;;;;;42.30;18.25;;;;;;;8.49;74.87;102073.81;5055710;28;20053;-55
2021/11/09 05:56:31;;;;;;;39.95;18.88;;;;;;;8.50;74.38;102069.16;5059956;28;20049;-57
2021/11/09 05:58:59;;;;;;;41.33;18.25;;;;;;;8.50;74.35;102075.50;5037984;28;20049;-56
2021/11/09 06:01:27;;;;;;;44.25;18.48;;;;;;;8.31;74.25;102081.69;5036418;28;20045;-57
2021/11/09 06:03:54;;;;;;;41.00;19.10;;;;;;;8.57;74.44;102075.25;5036500;28;20058;-57
2021/11/09 06:06:22;;;;;;;42.72;18.70;;;;;;;8.55;73.72;102089.25;5036784;28;20053;-54
2021/11/09 06:08:50;;;;;;;38.38;18.30;;;;;;;8.62;73.11;102089.00;5036814;28;20409;-55
2021/11/09 06:11:18;;;;;;;36.55;17.50;;;;;;;8.49;73.77;102087.53;5036292;28;20057;-59
2021/11/09 06:13:46;;;;;;;41.55;18.50;;;;;;;8.28;74.62;102099.50;5035707;28;20053;-55
2021/11/09 06:16:13;;;;;;;35.47;17.60;;;;;;;8.35;74.94;102097.34;5036649;28;20060;-55
2021/11/09 06:18:41;;;;;;;39.67;17.73;;;;;;;8.30;73.96;102105.56;5035315;28;20049;-55
2021/11/09 06:21:09;;;;;;;38.88;18.00;;;;;;;8.35;74.23;102105.56;5036345;28;20393;-59
2021/11/09 06:23:36;;;;;;;39.30;17.98;;;;;;;8.14;74.65;102102.94;5049398;28;20037;-56
2021/11/09 06:26:04;;;;;;;46.83;18.50;;;;;;;8.10;74.69;102107.31;5056469;28;20072;-59
2021/11/09 06:28:32;;;;;;;38.95;18.75;;;;;;;8.43;74.49;102105.09;5056411;28;20059;-58
2021/11/09 06:31:00;;;;;;;40.05;18.30;;;;;;;8.38;73.68;102104.22;5038173;28;20045;-56
2021/11/09 06:33:27;;;;;;;49.83;18.40;;;;;;;8.07;74.43;102108.66;5056553;28;20049;-59
2021/11/09 06:35:57;;;;;;;41.85;18.90;;;;;;;8.20;74.54;102107.38;5054525;28;20052;-59
2021/11/09 06:38:25;;;;;;;39.45;18.13;;;;;;;7.94;74.79;102115.41;5056202;28;20045;-57
2021/11/09 06:40:53;;;;;;;40.67;17.85;;;;;;;8.10;74.81;102119.09;5073839;28;20056;-58
2021/11/09 06:43:20;;;;;;;32.97;18.90;;;;;;;8.17;74.56;102116.13;5050814;28;20056;-53
2021/11/09 06:45:48;;;;;;;39.10;18.23;;;;;;;8.13;74.56;102129.56;5036902;28;20064;-58
2021/11/09 06:48:18;;;;;;;41.95;19.02;;;;;;;7.94;75.04;102122.81;5034416;28;20505;-57
2021/11/09 06:50:46;;;;;;;39.63;19.05;;;;;;;8.02;74.38;102121.53;5035529;28;20049;-55
2021/11/09 06:53:13;;;;;;;52.30;18.95;;;;;;;7.99;75.20;102126.44;5051529;28;20052;-58
2021/11/09 06:55:40;;;;;;;41.17;19.85;;;;;;;8.23;75.01;102123.31;5055539;28;20045;-62
2021/11/09 06:58:08;;;;;;;42.88;21.38;;;;;;;8.12;74.21;102121.59;5055532;28;20045;-57
2021/11/09 07:00:36;;;;;;;32.50;17.17;;;;;;;8.21;74.12;102131.78;5055506;28;20060;-59
2021/11/09 07:03:03;;;;;;;39.97;17.00;;;;;;;7.94;74.94;102126.41;5055700;28;20056;-62
2021/11/09 07:05:31;;;;;;;35.83;17.40;;;;;;;8.06;75.13;102117.97;5050791;28;20513;-58
2021/11/09 07:07:59;;;;;;;42.22;17.20;;;;;;;8.16;73.89;102128.22;5035782;28;20061;-57
2021/11/09 07:10:27;;;;;;;36.65;17.35;;;;;;;7.92;75.36;102133.22;5034128;28;20057;-57
2021/11/09 07:12:54;;;;;;;32.80;16.00;;;;;;;8.24;74.62;102134.06;5035111;28;20049;-59
2021/11/09 07:15:21;;;;;;;46.58;18.08;;;;;;;8.16;74.95;102129.03;5034618;28;20055;-57
2021/11/09 07:17:49;;;;;;;38.72;18.08;;;;;;;8.52;73.68;102132.88;5051643;28;20060;-58
2021/11/09 07:20:19;;;;;;;36.88;17.48;;;;;;;8.21;74.25;102133.75;5053990;28;20048;-61
2021/11/09 07:22:48;;;;;;;38.25;17.20;;;;;;;8.40;73.86;102135.00;5053028;28;20057;-61
2021/11/09 07:25:16;;;;;;;38.53;18.33;;;;;;;8.39;73.78;102136.91;5057875;28;20046;-61
2021/11/09 07:27:45;;;;;;;43.72;18.50;;;;;;;8.39;73.86;102139.66;5058201;28;20064;-58
2021/11/09 07:30:14;;;;;;;39.70;18.55;;;;;;;8.57;73.46;102135.66;5054466;28;20049;-59
2021/11/09 07:32:41;;;;;;;37.97;17.13;;;;;;;8.27;73.74;102144.50;5052875;28;20049;-60
2021/11/09 07:35:10;;;;;;;42.45;17.98;;;;;;;8.25;74.46;102143.09;5053216;28;20048;-58
2021/11/09 07:37:37;;;;;;;37.72;17.80;;;;;;;8.11;75.06;102144.66;5055175;28;20061;-61
2021/11/09 07:40:06;;;;;;;42.05;19.25;;;;;;;8.04;75.82;102146.78;5054837;28;20055;-60
2021/11/09 07:42:33;;;;;;;50.53;18.42;;;;;;;7.83;77.06;102159.47;5054850;28;20057;-58
2021/11/09 07:45:01;;;;;;;41.70;18.77;;;;;;;7.68;76.76;102160.16;5054138;28;20433;-60
2021/11/09 07:47:28;;;;;;;55.63;20.70;;;;;;;7.82;77.50;102158.66;5041579;28;20051;-55
2021/11/09 07:49:55;;;;;;;41.95;18.88;;;;;;;9.35;75.71;102162.09;5051780;28;20060;-62
2021/11/09 07:52:23;;;;;;;53.53;20.50;;;;;;;10.00;70.52;102160.34;5053990;28;20052;-62
2021/11/09 07:54:57;;;;;;;51.67;19.63;;;;;;;10.12;69.96;102152.66;5054714;28;20060;-61
2021/11/09 07:57:28;;;;;;;49.90;20.20;;;;;;;9.68;71.37;102167.16;5037404;28;20044;-63
2021/11/09 08:00:00;;;;;;;47.78;20.48;;;;;;;10.57;68.48;102159.22;5035408;28;20069;-61
2021/11/09 08:02:32;;;;;;;50.05;21.83;;;;;;;10.42;67.64;102160.06;5055536;28;20061;-62
2021/11/09 08:05:07;;;;;;;52.22;21.27;;;;;;;10.68;67.86;102164.44;5055057;28;20788;-63
2021/11/09 08:07:50;;;;;;;47.97;20.98;;;;;;;11.35;65.21;102166.66;5054033;28;20060;-62
2021/11/09 08:10:18;;;;;;;40.47;20.13;;;;;;;11.38;64.51;102172.44;5052770;28;20060;-63
2021/11/09 08:12:45;;;;;;;47.65;20.02;;;;;;;11.55;63.48;102169.34;5034897;28;20063;-63
2021/11/09 08:15:12;;;;;;;44.35;19.88;;;;;;;11.81;62.22;102161.75;5054369;28;20041;-63
2021/11/09 08:17:40;;;;;;;44.15;18.98;;;;;;;11.53;63.51;102167.94;5052893;28;20056;-62
2021/11/09 08:20:08;;;;;;;48.00;20.30;;;;;;;11.51;63.57;102175.69;5051964;28;20056;-61
2021/11/09 08:22:35;;;;;;;42.95;18.73;;;;;;;11.77;62.36;102174.50;5054313;28;20056;-63
2021/11/09 08:25:03;;;;;;;51.05;19.80;;;;;;;11.87;62.59;102166.13;5055195;28;20560;-63
2021/11/09 08:27:30;;;;;;;44.97;19.65;;;;;;;11.41;63.18;102172.97;5055602;28;20067;-63
2021/11/09 08:29:58;;;;;;;44.00;18.67;;;;;;;11.46;63.04;102181.22;5050093;28;20053;-62
2021/11/09 08:32:26;;;;;;;43.15;18.63;;;;;;;11.65;62.68;102173.97;5043716;28;20211;-62
2021/11/09 08:34:54;;;;;;;45.78;20.27;;;;;;;11.84;62.40;102169.44;5057736;28;20057;-62
2021/11/09 08:37:22;;;;;;;43.83;19.17;;;;;;;11.87;61.81;102171.66;5058481;28;20673;-62
2021/11/09 08:39:49;;;;;;;44.85;19.25;;;;;;;11.91;61.54;102179.06;5065399;28;20053;-62
2021/11/09 08:45:02;;;;;;;44.28;18.88;;;;;;;11.99;62.15;102174.88;5055248;28;20056;-64
2021/11/09 08:47:33;;;;;;;;;;;;;;;11.99;61.43;102172.13;5051853;28;20143;-62
2021/11/09 08:50:02;;;;;;;42.47;19.25;;;;;;;11.80;62.19;102174.72;5052719;28;19940;-63
2021/11/09 08:52:31;;;;;;;45.38;18.95;;;;;;;12.04;61.38;102174.84;5050183;28;20516;-63
2021/11/09 09:06:00;;;;;;;41.88;20.77;;;;;;;11.83;61.70;102173.31;5054207;28;20045;-61
2021/11/09 09:08:29;;;;;;;45.25;20.50;;;;;;;12.23;60.23;102176.63;5058056;28;20052;-61
2021/11/09 09:10:57;;;;;;;45.65;20.40;;;;;;;12.46;59.72;102173.06;5073021;28;20069;-62
2021/11/09 09:13:24;;;;;;;45.40;20.45;;;;;;;12.34;60.48;102171.84;5050091;28;20049;-62
2021/11/09 09:15:51;;;;;;;41.53;18.92;;;;;;;12.56;58.86;102161.09;5039985;28;20434;-62
2021/11/09 09:18:19;;;;;;;45.63;19.60;;;;;;;12.34;60.02;102166.31;5057696;28;20064;-63
2021/11/09 09:20:51;;;;;;;43.58;18.88;;;;;;;12.26;60.29;102164.16;5054830;28;20044;-62
2021/11/09 09:23:28;;;;;;;35.95;17.58;;;;;;;12.42;59.87;102163.72;5068715;28;20045;-61
2021/11/09 09:53:26;;;;;;;42.40;17.55;;;;;;;12.50;59.38;102165.03;5055867;28;20045;-62
2021/11/09 09:56:11;;;;;;;41.80;17.30;;;;;;;12.61;59.70;102171.28;5055389;28;20064;-62
2021/11/09 09:58:38;;;;;;;40.40;16.30;;;;;;;12.73;58.84;102157.88;5052412;28;20120;-62
2021/11/09 10:01:06;;;;;;;39.15;16.23;;;;;;;12.46;59.72;102158.44;5066067;28;20056;-62
2021/11/09 10:03:36;;;;;;;41.50;16.83;;;;;;;12.48;59.36;102154.25;5056204;28;20045;-63
2021/11/09 10:06:08;;;;;;;40.30;16.02;;;;;;;12.58;58.86;102161.66;5035642;28;20037;-63
2021/11/09 10:08:45;;;;;;;34.78;14.45;;;;;;;12.37;59.19;102149.13;5070655;28;20060;-63
2021/11/09 10:11:39;;;;;;;38.88;16.25;;;;;;;12.60;58.30;102148.38;5053773;28;20049;-63
2021/11/09 10:14:08;;;;;;;44.85;18.60;;;;;;;12.80;57.85;102150.06;5074344;28;20377;-63
2021/11/09 10:16:41;;;;;;;40.63;18.85;;;;;;;12.88;58.07;102147.50;5059484;28;20476;-63
2021/11/09 10:19:10;;;;;;;36.22;16.55;;;;;;;12.78;58.16;102144.84;5051255;28;20048;-61
2021/11/09 10:21:39;;;;;;;33.20;14.95;;;;;;;12.56;58.03;102141.75;5055151;28;20036;-61
2021/11/09 10:24:27;;;;;;;39.50;15.77;;;;;;;12.84;57.91;102143.66;5056136;28;20045;-63
2021/11/09 10:26:58;;;;;;;46.35;16.00;;;;;;;12.98;57.04;102135.47;5064109;28;20051;-62
2021/11/09 10:29:39;;;;;;;39.90;15.68;;;;;;;13.09;56.54;102135.09;5062723;28;20057;-64
2021/11/09 10:32:14;;;;;;;35.25;15.15;;;;;;;13.24;56.21;102137.69;5056099;28;20044;-63
2021/11/09 10:34:43;;;;;;;33.92;14.30;;;;;;;13.29;55.93;102137.59;5038410;28;20049;-62
2021/11/09 10:37:18;;;;;;;49.65;15.65;;;;;;;12.95;56.57;102130.53;5055450;28;20048;-62
2021/11/09 10:40:18;;;;;;;39.60;14.52;;;;;;;13.00;56.72;102128.56;5065167;28;20057;-62
2021/11/09 10:42:49;;;;;;;34.33;15.02;;;;;;;13.02;56.29;102126.31;5069401;28;20049;-61
2021/11/09 10:45:20;;;;;;;38.95;14.70;;;;;;;13.12;56.31;102128.16;5052562;28;20052;-63
2021/11/09 10:47:52;;;;;;;37.25;15.32;;;;;;;13.39;56.00;102131.91;5054365;28;20056;-61
2021/11/09 10:50:23;;;;;;;36.60;15.55;;;;;;;13.85;54.51;102122.94;5069818;28;20500;-63
2021/11/09 10:53:19;;;;;;;35.70;14.45;;;;;;;13.71;54.71;102131.19;5052768;28;20057;-61
2021/11/09 10:55:52;;;;;;;36.45;14.45;;;;;;;13.56;55.07;102129.47;5054921;28;20052;-62
2021/11/09 10:59:17;;;;;;;34.78;14.07;;;;;;;13.47;55.01;102125.75;5052525;28;20052;-64
2021/11/09 11:04:12;;;;;;;34.15;12.23;;;;;;;14.58;51.97;102118.34;5054206;28;20052;-63
2021/11/09 11:06:47;;;;;;;34.58;13.73;;;;;;;13.99;53.69;102112.75;5055216;28;20048;-64
2021/11/09 11:09:19;;;;;;;34.45;12.65;;;;;;;14.07;53.22;102106.53;5055823;28;20052;-64
2021/11/09 11:12:09;;;;;;;36.97;13.48;;;;;;;13.76;54.01;102108.94;5038343;28;20508;-62
2021/11/09 11:14:42;;;;;;;37.70;12.40;;;;;;;13.95;53.68;102108.91;5056345;28;20045;-60
2021/11/09 11:17:19;;;;;;;37.42;12.95;;;;;;;14.12;53.48;102100.91;5056973;28;20049;-63
2021/11/09 11:19:54;;;;;;;34.83;12.38;;;;;;;14.22;53.67;102097.94;5051429;28;20512;-64
2021/11/09 11:22:24;;;;;;;36.03;11.82;;;;;;;14.21;53.51;102094.34;5052435;28;20053;-62
2021/11/09 11:24:52;;;;;;;32.72;11.35;;;;;;;14.32;53.41;102095.84;5053452;28;20045;-60
2021/11/09 11:27:20;;;;;;;31.33;10.60;;;;;;;14.43;53.84;102099.25;5054602;28;20049;-64
2021/11/09 11:29:51;;;;;;;25.35;10.02;;;;;;;14.54;52.33;102084.88;5059701;28;20048;-61
2021/11/09 11:32:23;;;;;;;28.52;9.35;;;;;;;14.46;52.55;102084.75;5057066;28;20052;-61
2021/11/09 11:34:52;;;;;;;28.30;9.63;;;;;;;14.42;52.76;102075.41;5054381;28;20408;-63
2021/11/09 11:37:20;;;;;;;26.67;9.32;;;;;;;14.54;52.12;102079.31;5053409;28;20388;-61
2021/11/09 11:39:53;;;;;;;28.35;9.20;;;;;;;14.21;51.96;102074.94;5054334;28;20055;-64
2021/11/09 11:42:22;;;;;;;30.88;9.68;;;;;;;13.92;52.69;102081.81;5051409;28;20052;-62
2021/11/09 11:45:00;;;;;;;32.28;9.73;;;;;;;14.01;53.46;102061.47;5053374;28;20404;-62
2021/11/09 11:47:28;;;;;;;30.98;9.73;;;;;;;14.27;53.25;102064.63;5046348;28;20048;-62
2021/11/09 11:49:59;;;;;;;31.20;8.23;;;;;;;14.55;52.19;102055.19;5063254;28;20071;-62
2021/11/09 11:52:35;;;;;;;24.70;8.23;;;;;;;14.97;51.22;102054.88;5053403;28;20061;-63
2021/11/09 11:55:21;;;;;;;30.55;7.82;;;;;;;14.72;49.78;102049.84;5053184;28;20037;-61
2021/11/09 11:58:00;;;;;;;28.85;7.45;;;;;;;14.39;50.20;102049.13;5029904;28;20046;-63
2021/11/09 12:00:44;;;;;;;24.65;7.07;;;;;;;14.38;51.77;102043.91;5054687;28;20603;-63
2021/11/09 12:03:23;;;;;;;23.25;7.63;;;;;;;14.37;50.81;102045.00;5054565;28;20052;-63
2021/11/09 12:05:55;;;;;;;23.15;7.18;;;;;;;14.52;50.87;102045.53;5047234;28;20535;-63
2021/11/09 12:08:37;;;;;;;21.15;6.70;;;;;;;14.75;50.21;102040.91;5048665;28;20053;-61
2021/11/09 12:11:09;;;;;;;26.70;7.05;;;;;;;14.67;49.48;102033.31;5052798;28;20069;-63
2021/11/09 12:13:54;;;;;;;25.30;6.25;;;;;;;14.84;48.79;102036.28;5053897;28;20503;-63
2021/11/09 12:16:45;;;;;;;25.58;5.80;;;;;;;14.95;48.70;102017.47;5053863;28;20045;-63
2021/11/09 12:19:35;;;;;;;21.33;5.05;;;;;;;14.94;48.55;102022.19;5049542;28;20041;-62
2021/11/09 12:22:09;;;;;;;24.30;5.65;;;;;;;14.83;48.01;102022.72;5052241;28;20075;-62
2021/11/09 12:24:57;;;;;;;20.23;4.55;;;;;;;14.80;47.81;102023.34;5051428;28;20045;-65
2021/11/09 12:27:32;;;;;;;16.30;4.35;;;;;;;15.07;46.20;102014.97;5053932;28;20048;-64
2021/11/09 12:30:00;;;;;;;23.88;6.32;;;;;;;14.80;47.46;102015.88;5054295;28;20060;-63
2021/11/09 12:32:28;;;;;;;24.40;6.03;;;;;;;14.96;47.01;102008.81;5051825;28;20055;-64
2021/11/09 12:35:03;;;;;;;29.00;6.68;;;;;;;14.75;47.23;102004.06;5056726;28;20041;-61
2021/11/09 12:37:34;;;;;;;21.45;7.35;;;;;;;14.71;47.47;102009.41;5058125;28;20056;-62
2021/11/09 12:40:20;;;;;;;;;;;;;;;14.61;47.30;102012.38;5062286;28;20053;-62
2021/11/09 12:43:09;;;;;;;22.25;5.90;;;;;;;14.89;47.25;101996.53;5070196;28;19921;-62
2021/11/09 12:45:38;;;;;;;26.50;6.32;;;;;;;14.91;46.97;102000.63;5051846;28;20045;-62
2021/11/09 12:48:09;;;;;;;27.50;6.72;;;;;;;14.64;47.50;102000.69;5058077;28;20417;-63
2021/11/09 12:50:39;;;;;;;26.95;7.00;;;;;;;14.34;47.75;102002.13;5057935;28;20045;-62
2021/11/09 12:53:13;;;;;;;23.85;6.80;;;;;;;14.41;48.23;101996.16;5039281;28;20053;-63
2021/11/09 12:55:41;;;;;;;22.77;5.85;;;;;;;14.70;47.38;101999.41;5055899;28;20045;-64
2021/11/09 12:58:24;;;;;;;17.45;5.40;;;;;;;14.73;47.14;101992.44;5057315;28;20048;-62
2021/11/09 13:01:16;;;;;;;26.13;6.40;;;;;;;14.88;46.58;101990.16;5047914;28;20053;-61
2021/11/09 13:07:07;;;;;;;20.30;5.95;;;;;;;15.02;45.73;101984.56;5048886;28;20059;-64
2021/11/09 13:09:42;;;;;;;23.23;5.80;;;;;;;14.88;47.19;101976.28;5058091;28;20048;-64
2021/11/09 13:12:14;;;;;;;18.30;4.93;;;;;;;14.80;46.07;101979.81;5056755;28;20064;-63
2021/11/09 13:14:48;;;;;;;21.40;5.65;;;;;;;14.87;45.46;101984.91;5057514;28;20488;-62
2021/11/09 13:18:03;;;;;;;15.63;5.07;;;;;;;14.97;45.77;101984.69;5056350;28;20428;-62
2021/11/09 13:20:37;;;;;;;22.60;6.43;;;;;;;15.07;45.39;101981.66;5052432;28;20052;-63
2021/11/09 13:23:08;;;;;;;22.58;6.53;;;;;;;15.07;45.76;101979.72;5056101;28;20082;-62
2021/11/09 13:25:37;;;;;;;29.40;6.38;;;;;;;15.42;44.61;101967.81;5062628;28;20040;-63
2021/11/09 13:28:13;;;;;;;24.47;6.50;;;;;;;15.29;44.05;101979.75;5064284;28;20412;-62
2021/11/09 13:31:07;;;;;;;21.38;5.60;;;;;;;15.30;43.59;101975.03;5037588;28;20385;-64
2021/11/09 13:33:37;;;;;;;23.85;5.93;;;;;;;15.34;43.93;101967.72;5037692;28;20171;-63
2021/11/09 13:36:04;;;;;;;;;;;;;;;15.45;43.82;101972.72;5036631;28;20053;-62
2021/11/09 13:38:37;;;;;;;17.98;5.43;;;;;;;15.13;43.91;101969.34;5051283;28;19921;-62
2021/11/09 13:41:18;;;;;;;18.83;5.50;;;;;;;15.16;43.33;101971.47;5062389;28;20053;-64
2021/11/09 13:43:56;;;;;;;16.90;5.15;;;;;;;15.39;43.70;101962.03;5037041;28;20057;-62
2021/11/09 13:46:27;;;;;;;17.77;5.05;;;;;;;15.24;43.11;101965.16;5048796;28;20057;-62
2021/11/09 13:49:00;;;;;;;25.00;5.28;;;;;;;15.24;43.52;101960.44;5056167;28;20060;-62
2021/11/09 13:51:36;;;;;;;22.33;5.90;;;;;;;15.33;42.38;101960.50;5057046;28;20044;-63
2021/11/09 13:54:08;;;;;;;21.27;5.30;;;;;;;15.37;42.68;101950.41;5053833;28;20433;-62